KGNB

Details ICAO KGNB
Name GRANBY GRAND CO
Region United States
Timezone America/Denver (UTC-6.0)
Plans Departing 1
Arriving 4
Stats Elevation 8,203 ft / 2,500 m (AMSL)
Location 40.089708° -105.917237°
Runways 1
Magnetic Variation 8.676° E
Sunrise 2018-05-25 11:41:46 UTC / 2018-05-25 05:41:46 Local
Sunset 2018-05-26 02:22:23 UTC / 2018-05-25 20:22:23 Local
Advertisement - Login to hide

Runways

ID Width Length Bearing (true) Bearing (mag) Surface Threshold Offset Overrun Length
09 70 ft / 21 m 5,085 ft / 1,550 m 100.84° 92.16° Asphalt 0 ft / 0 m 0 ft / 0 m
27 70 ft / 21 m 5,085 ft / 1,550 m 280.85° 272.17° Asphalt 0 ft / 0 m 0 ft / 0 m

Map

Weather


0- 5 10 15 20 25 30 35+ Temperature / ° C

Clouds and Precipitation
Forecast for 2018-05-26 00:00 UTC. Updated 6 hours ago

Ground ~20,000 ft ~40,000 ft Winds

METAR

KGNB 260455Z AUTO 05005KT 10SM CLR 13/M01 A3022 RMK AO2 T01301011

TAF

Not found

Frequencies

Recorded 119.92 MHz AWOS 1
Unicom 123.00 MHz CTAF/UNICOM
Warning: Do not use this data for real-world aviation or navigation. No guarantee of current accuracy is given.